Time;durP1;ratioP1;P1;durP2;ratioP2;P2;SDS_P1;SDS_P2;PMS_P1;PMS_P2;Temp;Humidity;BMP_temperature;BMP_pressure;BME280_temperature;BME280_humidity;BME280_pressure;Samples;Min_cycle;Max_cycle;Signal;HPM_P1;HPM_P2
2022/09/08 00:00:52;;;;;;;8.03;2.55;;;;;;;24.05;51.50;101946.01;1588771;90;21062;-55
2022/09/08 00:03:21;;;;;;;9.23;2.65;;;;;;;24.04;51.53;101949.63;1589239;90;21127;-55
2022/09/08 00:05:57;;;;;;;11.68;3.62;;;;;;;24.05;52.22;101937.20;1625136;86;21480;-53
2022/09/08 00:08:24;;;;;;;10.55;3.22;;;;;;;24.04;52.94;101932.34;1651501;86;21031;-59
2022/09/08 00:10:56;;;;;;;9.85;3.22;;;;;;;24.03;53.56;101910.67;1637249;86;21075;-54
2022/09/08 00:13:25;;;;;;;5.10;2.47;;;;;;;24.02;53.71;101910.28;1648122;86;21115;-53
2022/09/08 00:15:52;;;;;;;3.75;2.15;;;;;;;23.99;53.74;101907.78;1638722;86;21130;-57
2022/09/08 00:18:19;;;;;;;7.15;1.90;;;;;;;23.96;54.06;101909.31;1643438;86;21571;-53
2022/09/08 00:20:46;;;;;;;5.05;2.20;;;;;;;23.95;53.63;101924.00;1644796;86;21063;-55
2022/09/08 00:23:12;;;;;;;4.42;2.20;;;;;;;23.94;53.89;101924.97;1685380;83;21132;-57
2022/09/08 00:25:40;;;;;;;4.50;2.00;;;;;;;23.92;54.07;101934.37;1721011;83;21014;-54
2022/09/08 00:28:07;;;;;;;4.35;2.12;;;;;;;23.94;53.90;101941.78;1721360;83;21014;-54
2022/09/08 00:30:36;;;;;;;4.03;2.00;;;;;;;23.92;53.42;101941.02;1714796;83;21478;-53
2022/09/08 00:33:02;;;;;;;5.72;2.30;;;;;;;23.91;53.58;101946.40;1721161;83;21026;-55
2022/09/08 00:35:29;;;;;;;5.40;1.75;;;;;;;23.89;53.31;101949.16;1721027;83;21072;-59
2022/09/08 00:37:55;;;;;;;9.10;2.60;;;;;;;23.87;53.37;101950.19;1721566;83;21045;-54
2022/09/08 00:40:24;;;;;;;4.95;2.08;;;;;;;23.85;53.83;101947.63;1721124;83;21040;-57
2022/09/08 00:43:04;;;;;;;12.03;3.17;;;;;;;23.84;53.73;101947.25;1721420;83;20986;-56
2022/09/08 00:45:36;;;;;;;7.67;2.70;;;;;;;23.83;54.00;101941.54;1673388;85;21006;-54
2022/09/08 00:48:10;;;;;;;7.90;2.87;;;;;;;23.82;54.26;101937.65;1646677;87;21499;-56
2022/09/08 00:50:38;;;;;;;6.55;2.85;;;;;;;23.79;54.53;101934.69;1605988;89;21125;-54
2022/09/08 00:53:08;;;;;;;6.42;2.58;;;;;;;23.76;54.81;101926.88;1605141;89;21056;-55
2022/09/08 00:55:37;;;;;;;10.38;4.15;;;;;;;23.74;55.15;101915.48;1574511;91;21086;-53
2022/09/08 00:58:04;;;;;;;10.35;3.58;;;;;;;23.72;55.03;101924.52;1604729;89;21085;-54
2022/09/08 01:00:31;;;;;;;9.78;3.27;;;;;;;23.71;55.11;101926.30;1597779;89;21134;-53
2022/09/08 01:02:58;;;;;;;6.40;2.60;;;;;;;23.71;55.04;101924.98;1643497;87;21086;-56
2022/09/08 01:05:28;;;;;;;8.50;3.27;;;;;;;23.70;54.99;101918.43;1605322;89;21074;-53
2022/09/08 01:14:14;;;;;;;15.10;3.98;;;;;;;23.65;54.99;101917.83;1569108;91;21579;-54
2022/09/08 01:16:43;;;;;;;5.70;2.58;;;;;;;23.65;55.10;101918.69;1538953;92;21140;-57
2022/09/08 01:19:25;;;;;;;7.55;2.75;;;;;;;23.63;54.83;101913.08;1543116;92;21122;-57
2022/09/08 01:22:19;;;;;;;7.72;3.58;;;;;;;23.62;54.11;101921.51;1559837;92;21552;-56
2022/09/08 01:25:17;;;;;;;8.65;3.40;;;;;;;23.63;54.65;101926.36;1534076;92;21117;-53
2022/09/08 01:27:46;;;;;;;6.50;2.90;;;;;;;23.65;54.83;101921.34;1559694;92;21104;-54
2022/09/08 01:30:12;;;;;;;7.70;2.77;;;;;;;23.66;54.59;101915.07;1535188;92;21005;-55
2022/09/08 01:32:41;;;;;;;10.55;3.35;;;;;;;23.62;54.31;101900.25;1559509;92;21588;-53
2022/09/08 01:35:08;;;;;;;10.28;2.92;;;;;;;23.59;54.16;101901.77;1534968;92;21126;-54
2022/09/08 01:37:36;;;;;;;10.18;3.80;;;;;;;23.55;54.70;101885.62;1560805;91;21145;-54
2022/09/08 01:40:04;;;;;;;14.03;4.10;;;;;;;23.53;54.36;101890.17;1547591;92;21089;-55
2022/09/08 01:42:32;;;;;;;10.55;3.30;;;;;;;23.52;54.58;101896.41;1559796;90;21656;-59
2022/09/08 01:44:58;;;;;;;17.80;4.15;;;;;;;23.51;54.78;101905.34;1566582;89;21086;-53
2022/09/08 01:47:25;;;;;;;11.28;3.25;;;;;;;23.50;54.56;101904.08;1635834;88;21085;-54
2022/09/08 01:49:52;;;;;;;6.80;2.47;;;;;;;23.49;54.57;101895.28;1647091;83;21053;-55
2022/09/08 01:52:18;;;;;;;9.48;3.00;;;;;;;23.47;54.26;101898.97;1723745;83;21540;-53
2022/09/08 01:54:45;;;;;;;6.72;2.85;;;;;;;23.45;54.16;101892.42;1723287;83;21041;-59
2022/09/08 01:57:12;;;;;;;3.65;2.72;;;;;;;23.45;54.19;101889.76;1723640;83;21034;-58
2022/09/08 01:59:38;;;;;;;5.85;3.70;;;;;;;23.49;53.97;101891.76;1723427;83;21065;-53
2022/09/08 02:02:05;;;;;;;9.75;3.80;;;;;;;23.51;53.86;101886.75;1723255;83;21033;-56
2022/09/08 02:04:32;;;;;;;4.15;3.30;;;;;;;23.57;53.80;101886.39;1723334;83;21070;-55
2022/09/08 02:06:59;;;;;;;7.85;3.65;;;;;;;23.61;53.57;101890.59;1723611;83;21037;-60
2022/09/08 02:09:27;;;;;;;8.53;3.55;;;;;;;23.63;53.57;101883.84;1723365;83;21128;-55
2022/09/08 02:11:54;;;;;;;5.22;3.10;;;;;;;23.65;53.55;101882.81;1723585;83;21049;-58
2022/09/08 02:14:21;;;;;;;5.78;3.00;;;;;;;23.67;53.56;101886.70;1723569;83;21053;-53
2022/09/08 02:16:48;;;;;;;5.97;3.40;;;;;;;23.69;53.53;101884.81;1720082;83;21098;-55
2022/09/08 02:19:15;;;;;;;6.00;3.17;;;;;;;23.73;53.51;101886.34;1713368;84;21046;-52
2022/09/08 02:21:42;;;;;;;10.30;4.05;;;;;;;23.78;53.47;101886.95;1713359;83;21031;-54
2022/09/08 02:24:08;;;;;;;5.47;3.27;;;;;;;23.80;53.48;101889.88;1713685;84;21021;-54
2022/09/08 02:26:37;;;;;;;8.48;3.85;;;;;;;23.83;53.38;101890.17;1713380;83;21037;-54
2022/09/08 02:29:08;;;;;;;8.53;3.60;;;;;;;23.84;53.33;101886.12;1713551;84;21034;-53
2022/09/08 02:31:33;;;;;;;12.23;3.47;;;;;;;23.87;53.38;101892.56;1669386;85;21046;-53
2022/09/08 02:34:00;;;;;;;9.05;4.47;;;;;;;23.90;53.44;101881.77;1670153;86;21057;-57
2022/09/08 02:36:27;;;;;;;8.83;4.25;;;;;;;23.93;53.91;101884.22;1670328;86;21533;-54
2022/09/08 02:38:54;;;;;;;7.65;3.75;;;;;;;23.96;54.10;101878.73;1669904;86;21541;-55
2022/09/08 02:41:26;;;;;;;7.22;3.83;;;;;;;24.00;54.40;101882.92;1670200;86;21482;-54
2022/09/08 02:43:53;;;;;;;6.67;3.95;;;;;;;24.04;54.46;101881.83;1669864;86;21038;-53
2022/09/08 02:46:19;;;;;;;8.80;3.70;;;;;;;24.06;54.74;101877.27;1670042;86;21038;-56
2022/09/08 02:48:47;;;;;;;9.95;4.30;;;;;;;24.09;54.70;101875.73;1669771;86;21014;-55
2022/09/08 02:51:17;;;;;;;7.70;3.47;;;;;;;24.13;54.97;101877.27;1669952;86;21081;-53
2022/09/08 02:53:43;;;;;;;8.58;3.85;;;;;;;24.18;55.01;101879.19;1670226;86;21482;-56
2022/09/08 02:56:09;;;;;;;5.83;3.87;;;;;;;24.21;54.88;101881.64;1670007;86;21108;-54
2022/09/08 02:58:36;;;;;;;5.67;3.35;;;;;;;24.23;54.88;101876.25;1669472;85;21053;-53
2022/09/08 03:01:04;;;;;;;8.00;4.60;;;;;;;24.25;55.11;101876.52;1670199;85;21041;-56
2022/09/08 03:03:31;;;;;;;7.75;3.90;;;;;;;24.27;55.35;101875.59;1669414;86;21085;-55
2022/09/08 03:05:58;;;;;;;4.60;3.33;;;;;;;24.29;55.16;101875.02;1670153;85;21330;-55
2022/09/08 03:08:24;;;;;;;6.83;3.75;;;;;;;24.32;55.47;101872.19;1658154;86;21085;-53
2022/09/08 03:10:51;;;;;;;6.10;3.10;;;;;;;24.33;55.55;101873.87;1669961;86;21042;-53
2022/09/08 03:13:18;;;;;;;5.62;3.35;;;;;;;24.34;55.87;101873.77;1670118;86;21065;-54
2022/09/08 03:15:45;;;;;;;6.58;3.20;;;;;;;24.37;55.96;101870.08;1670084;86;21086;-53
2022/09/08 03:18:12;;;;;;;5.50;3.65;;;;;;;24.38;56.10;101869.97;1660471;86;21116;-55
2022/09/08 03:20:40;;;;;;;5.00;4.28;;;;;;;24.39;55.36;101863.72;1662941;86;21514;-53
2022/09/08 03:23:06;;;;;;;10.70;4.12;;;;;;;24.42;55.23;101866.67;1663896;86;21101;-54
2022/09/08 03:25:36;;;;;;;6.95;3.50;;;;;;;24.44;55.73;101860.78;1663984;86;21081;-53
2022/09/08 03:28:04;;;;;;;6.62;3.50;;;;;;;24.45;55.95;101862.47;1662578;86;21080;-55
2022/09/08 03:30:31;;;;;;;4.70;3.25;;;;;;;24.45;56.23;101858.48;1661153;86;21037;-53
2022/09/08 03:32:58;;;;;;;8.10;2.90;;;;;;;24.45;56.08;101862.47;1661311;86;21057;-55
2022/09/08 03:35:25;;;;;;;7.62;3.40;;;;;;;24.44;56.13;101860.78;1660579;86;21041;-53
2022/09/08 03:37:54;;;;;;;7.47;3.52;;;;;;;24.43;56.15;101860.39;1661118;86;21129;-59
2022/09/08 03:40:20;;;;;;;8.15;4.08;;;;;;;24.43;56.44;101859.05;1662309;86;21585;-53
2022/09/08 03:42:47;;;;;;;7.87;3.27;;;;;;;24.42;56.65;101862.69;1664120;86;21545;-55
2022/09/08 03:45:17;;;;;;;6.92;3.40;;;;;;;24.14;57.25;101860.37;1662993;86;21077;-53
2022/09/08 03:47:45;;;;;;;6.80;3.72;;;;;;;24.01;57.50;101860.69;1655250;86;20997;-54
2022/09/08 03:50:14;;;;;;;6.47;2.90;;;;;;;23.95;57.82;101861.06;1657759;86;21018;-56
2022/09/08 03:52:41;;;;;;;8.28;3.22;;;;;;;23.94;57.84;101863.82;1660197;86;21558;-60
2022/09/08 03:55:09;;;;;;;7.60;2.90;;;;;;;23.92;57.94;101869.70;1665046;86;21034;-55
2022/09/08 03:57:39;;;;;;;6.12;3.65;;;;;;;23.89;58.03;101869.87;1663754;86;21042;-56
2022/09/08 04:00:08;;;;;;;5.28;2.80;;;;;;;23.89;58.28;101874.72;1656610;86;21057;-53
2022/09/08 04:02:41;;;;;;;5.83;2.90;;;;;;;23.87;58.17;101873.09;1661296;86;21037;-58
2022/09/08 04:05:08;;;;;;;7.70;3.30;;;;;;;23.86;58.30;101864.29;1651136;86;21140;-55
2022/09/08 04:07:35;;;;;;;5.60;3.12;;;;;;;23.85;58.40;101863.89;1663789;86;21081;-53
2022/09/08 04:10:02;;;;;;;7.03;2.90;;;;;;;23.85;58.48;101864.35;1661358;86;21092;-53
2022/09/08 04:12:29;;;;;;;9.23;3.60;;;;;;;23.85;58.53;101868.34;1660762;86;21058;-53
2022/09/08 04:14:56;;;;;;;8.20;3.22;;;;;;;23.87;58.40;101871.77;1661343;86;21079;-57
2022/09/08 04:17:23;;;;;;;10.18;3.72;;;;;;;23.87;58.59;101868.64;1665447;86;21585;-54
2022/09/08 04:19:51;;;;;;;9.50;3.22;;;;;;;23.88;58.85;101854.42;1670093;86;21081;-52
2022/09/08 04:22:18;;;;;;;7.78;3.15;;;;;;;23.91;58.56;101861.33;1652366;86;21029;-55
2022/09/08 04:24:45;;;;;;;5.97;3.50;;;;;;;23.93;58.24;101866.08;1670194;86;21073;-53
2022/09/08 04:27:12;;;;;;;9.08;3.00;;;;;;;23.94;57.88;101859.83;1670360;86;21057;-55
2022/09/08 04:29:40;;;;;;;7.70;2.40;;;;;;;23.95;57.58;101860.20;1669827;86;21090;-60
2022/09/08 04:32:09;;;;;;;6.22;3.10;;;;;;;23.96;57.33;101857.47;1670256;86;21542;-53
2022/09/08 04:34:36;;;;;;;7.50;2.70;;;;;;;23.98;57.31;101863.55;1670374;86;21016;-54
2022/09/08 04:37:03;;;;;;;9.35;3.10;;;;;;;23.99;57.21;101859.92;1669961;86;21093;-55
2022/09/08 04:39:31;;;;;;;6.83;3.00;;;;;;;24.01;57.50;101860.69;1670192;86;21124;-53
2022/09/08 04:41:58;;;;;;;6.83;2.87;;;;;;;24.02;57.45;101839.81;1670251;86;21038;-55
2022/09/08 04:44:25;;;;;;;6.90;3.05;;;;;;;24.36;56.32;101842.61;1670031;86;21057;-53
2022/09/08 04:46:51;;;;;;;7.95;3.92;;;;;;;24.43;56.11;101855.92;1670035;86;21047;-54
2022/09/08 04:49:18;;;;;;;9.68;3.40;;;;;;;24.46;56.07;101853.56;1669624;86;21054;-54
2022/09/08 04:51:46;;;;;;;7.35;3.58;;;;;;;24.49;56.19;101841.38;1670114;86;21053;-54
2022/09/08 04:54:12;;;;;;;9.33;3.55;;;;;;;24.50;56.26;101830.66;1670091;86;21054;-56
2022/09/08 04:56:39;;;;;;;8.20;3.30;;;;;;;24.53;56.32;101812.30;1669563;86;21058;-54
2022/09/08 04:59:06;;;;;;;8.73;3.40;;;;;;;24.53;56.34;101822.47;1670176;86;21582;-56
2022/09/08 05:01:35;;;;;;;6.92;3.10;;;;;;;24.54;56.23;101823.33;1670073;86;21081;-56
2022/09/08 05:04:03;;;;;;;5.22;3.40;;;;;;;24.54;56.22;101822.00;1670279;86;21093;-57
2022/09/08 05:06:32;;;;;;;6.50;3.62;;;;;;;24.54;56.34;101827.33;1669775;86;21113;-53
2022/09/08 05:09:00;;;;;;;8.93;3.35;;;;;;;24.54;56.25;101823.33;1670314;86;21005;-56
2022/09/08 05:11:28;;;;;;;8.80;3.95;;;;;;;24.53;56.17;101831.78;1670347;86;21044;-55
2022/09/08 05:13:55;;;;;;;7.30;3.70;;;;;;;24.54;56.16;101840.63;1670143;86;21057;-53
2022/09/08 05:16:24;;;;;;;8.50;3.62;;;;;;;24.54;56.39;101845.48;1669575;86;21049;-55
2022/09/08 05:18:55;;;;;;;9.48;3.98;;;;;;;24.56;56.47;101829.41;1669657;85;21156;-53
2022/09/08 05:21:21;;;;;;;5.78;3.87;;;;;;;24.56;56.59;101830.74;1669752;86;20991;-56
2022/09/08 05:23:50;;;;;;;7.55;3.33;;;;;;;24.55;56.39;101831.21;1670271;86;21041;-56
2022/09/08 05:26:18;;;;;;;9.63;4.28;;;;;;;24.56;55.81;101832.08;1670369;86;21037;-61
2022/09/08 05:28:45;;;;;;;7.90;3.60;;;;;;;24.56;55.70;101834.27;1670258;86;21066;-57
2022/09/08 05:31:15;;;;;;;6.65;3.55;;;;;;;24.58;55.76;101839.48;1669528;86;21085;-55
2022/09/08 05:33:42;;;;;;;7.72;3.30;;;;;;;24.60;55.82;101841.57;1670266;86;21056;-55
2022/09/08 05:36:18;;;;;;;6.08;3.40;;;;;;;24.61;55.88;101837.48;1669503;86;21037;-54
2022/09/08 05:38:46;;;;;;;7.10;3.98;;;;;;;24.64;56.38;101834.63;1614249;89;21093;-53
2022/09/08 05:41:14;;;;;;;4.80;3.62;;;;;;;24.67;56.39;101839.75;1677962;85;21064;-54
2022/09/08 05:43:42;;;;;;;6.47;3.37;;;;;;;24.71;56.09;101839.09;1663856;85;21068;-56
2022/09/08 05:46:09;;;;;;;5.28;3.37;;;;;;;24.75;55.85;101852.12;1677119;85;21552;-62
2022/09/08 05:48:36;;;;;;;6.45;3.42;;;;;;;24.78;55.58;101844.42;1677821;85;21021;-61
2022/09/08 05:51:09;;;;;;;4.75;3.10;;;;;;;24.81;55.39;101834.42;1677519;85;21041;-56
2022/09/08 05:53:37;;;;;;;5.37;3.55;;;;;;;24.84;55.15;101834.25;1612599;87;21085;-55
2022/09/08 05:56:07;;;;;;;10.63;3.77;;;;;;;24.87;54.93;101839.36;1612755;87;21055;-57
2022/09/08 05:58:34;;;;;;;7.80;4.00;;;;;;;24.88;55.22;101838.42;1613026;87;21081;-58
2022/09/08 06:01:06;;;;;;;10.20;3.77;;;;;;;24.91;55.45;101840.04;1612850;87;21086;-55
2022/09/08 06:03:32;;;;;;;10.18;3.80;;;;;;;24.94;55.88;101835.36;1563744;92;21071;-57
2022/09/08 06:06:09;;;;;;;10.43;3.75;;;;;;;24.98;56.31;101841.33;1565920;92;21595;-53
2022/09/08 06:08:38;;;;;;;11.70;3.42;;;;;;;25.03;56.16;101840.58;1530705;93;21105;-55
2022/09/08 06:11:05;;;;;;;4.95;3.30;;;;;;;25.08;56.04;101839.78;1565438;92;21732;-55
2022/09/08 06:13:32;;;;;;;9.50;3.75;;;;;;;25.12;55.85;101838.66;1565701;92;21140;-53
2022/09/08 06:16:07;;;;;;;9.53;3.60;;;;;;;25.18;55.79;101838.26;1565818;92;21055;-54
2022/09/08 06:18:35;;;;;;;8.50;3.50;;;;;;;25.22;55.38;101834.44;1446177;98;21221;-53
2022/09/08 06:21:08;;;;;;;6.87;3.72;;;;;;;25.25;55.33;101834.22;1437610;99;21522;-56
2022/09/08 06:23:35;;;;;;;7.70;2.80;;;;;;;25.26;55.36;101834.61;1408824;101;21185;-53
2022/09/08 06:26:37;;;;;;;7.47;3.10;;;;;;;25.29;55.01;101838.39;1409659;101;21659;-54
2022/09/08 06:29:27;;;;;;;6.28;2.67;;;;;;;25.31;54.75;101855.59;1407057;101;21168;-56
2022/09/08 06:32:27;;;;;;;10.67;3.93;;;;;;;25.32;54.54;101858.18;1417500;100;21154;-54
2022/09/08 06:35:05;;;;;;;6.85;3.10;;;;;;;25.30;55.11;101853.43;1431507;98;21636;-54
2022/09/08 06:37:54;;;;;;;5.95;2.77;;;;;;;25.27;55.26;101842.09;1454058;98;21657;-55
2022/09/08 06:40:45;;;;;;;6.10;2.22;;;;;;;25.26;55.42;101843.94;1374915;104;21140;-54
2022/09/08 06:43:27;;;;;;;;;;;;;;;25.27;55.57;101855.42;1372360;103;21140;-56
2022/09/08 06:45:56;;;;;;;;;;;;;;;25.30;56.04;101851.23;1369276;103;20143;-54
2022/09/08 06:48:31;;;;;;;6.03;2.77;;;;;;;25.33;56.19;101862.54;1370200;103;20148;-59
2022/09/08 06:51:22;;;;;;;6.75;2.62;;;;;;;25.39;56.04;101860.80;1370306;103;21585;-54
2022/09/08 06:54:12;;;;;;;7.97;3.20;;;;;;;25.52;56.44;101855.55;1356771;104;21693;-54
2022/09/08 06:57:03;;;;;;;11.18;3.77;;;;;;;25.52;56.44;101855.55;1354758;104;21189;-58
2022/09/08 06:59:42;;;;;;;10.82;4.05;;;;;;;25.60;55.91;101870.08;1340168;105;21128;-57
2022/09/08 07:02:40;;;;;;;5.80;3.05;;;;;;;25.68;55.41;101880.22;1344291;106;21150;-54
2022/09/08 07:05:21;;;;;;;5.28;3.25;;;;;;;25.73;55.46;101875.45;1345615;106;21191;-55
2022/09/08 07:07:57;;;;;;;18.75;5.33;;;;;;;25.81;55.35;101871.31;1339506;106;21632;-56
2022/09/08 07:10:56;;;;;;;27.55;8.13;;;;;;;25.95;55.71;101856.16;1335688;106;21147;-55
2022/09/08 07:13:37;;;;;;;22.35;6.53;;;;;;;25.95;55.71;101856.16;1341780;106;21159;-56
2022/09/08 07:16:17;;;;;;;;;;;;;;;25.93;56.19;101863.41;1386850;101;21178;-55
2022/09/08 07:19:03;;;;;;;8.08;3.42;;;;;;;25.86;56.11;101855.48;1388164;102;20179;-55
2022/09/08 07:21:45;;;;;;;8.20;3.72;;;;;;;25.76;56.19;101869.42;1390370;102;21174;-55
2022/09/08 07:24:15;;;;;;;5.37;3.58;;;;;;;25.67;56.07;101870.52;1391599;102;21216;-57
2022/09/08 07:26:54;;;;;;;9.63;4.08;;;;;;;25.56;56.24;101876.56;1406948;99;21247;-56
2022/09/08 07:29:30;;;;;;;9.25;3.95;;;;;;;25.49;56.54;101881.92;1401038;100;21186;-56
2022/09/08 07:31:58;;;;;;;9.15;4.22;;;;;;;25.44;56.61;101884.52;1431220;98;21090;-56
2022/09/08 07:34:27;;;;;;;7.00;3.05;;;;;;;25.41;56.51;101880.23;1435703;98;21133;-58
2022/09/08 07:37:15;;;;;;;7.90;4.00;;;;;;;25.36;56.42;101886.33;1446915;97;21146;-56
2022/09/08 07:40:03;;;;;;;9.03;3.92;;;;;;;25.34;56.44;101884.25;1502202;92;21102;-59
2022/09/08 07:42:31;;;;;;;7.35;3.47;;;;;;;25.33;56.71;101889.18;1505839;93;21074;-59
2022/09/08 07:45:00;;;;;;;13.03;3.62;;;;;;;25.36;57.19;101891.66;1505054;93;21137;-57
2022/09/08 07:47:58;;;;;;;5.45;3.40;;;;;;;25.42;57.36;101883.30;1505733;93;21132;-60
2022/09/08 07:53:57;;;;;;;7.83;3.33;;;;;;;25.58;57.19;101887.98;1505602;95;21117;-60
2022/09/08 07:56:42;;;;;;;8.20;3.67;;;;;;;25.64;56.54;101887.58;1501507;93;22527;-64
2022/09/08 07:59:34;;;;;;;5.37;3.75;;;;;;;25.73;56.40;101880.30;1476276;95;21226;-57
2022/09/08 08:02:38;;;;;;;7.17;3.70;;;;;;;25.73;56.40;101880.30;1504932;93;21175;-55
2022/09/08 08:05:25;;;;;;;5.22;3.08;;;;;;;25.78;56.17;101879.50;1504481;95;21087;-62
2022/09/08 08:08:18;;;;;;;9.38;3.83;;;;;;;25.84;56.11;101888.92;1512778;93;21102;-55
2022/09/08 08:11:00;;;;;;;6.97;3.47;;;;;;;25.94;55.95;101879.80;1518887;93;21122;-53
2022/09/08 08:13:45;;;;;;;9.88;3.47;;;;;;;25.94;55.95;101879.80;1515927;93;21058;-53
2022/09/08 08:16:15;;;;;;;9.45;3.45;;;;;;;25.97;55.65;101883.58;1519930;93;21139;-54
2022/09/08 08:19:18;;;;;;;7.73;3.37;;;;;;;25.99;55.91;101882.52;1536623;91;21211;-58
2022/09/08 08:21:56;;;;;;;5.78;3.35;;;;;;;26.03;55.63;101888.53;1577011;90;21552;-56
2022/09/08 08:24:54;;;;;;;11.73;3.62;;;;;;;26.05;55.56;101880.77;1580893;89;21088;-57
2022/09/08 08:27:51;;;;;;;11.15;3.65;;;;;;;26.09;55.61;101881.47;1582245;89;21718;-62
2022/09/08 08:30:20;;;;;;;7.58;3.72;;;;;;;26.10;55.53;101877.36;1573404;91;21127;-57
2022/09/08 08:32:55;;;;;;;11.90;3.67;;;;;;;26.14;55.38;101883.33;1570932;91;21110;-55
2022/09/08 08:35:33;;;;;;;9.15;3.95;;;;;;;26.17;55.39;101886.63;1581440;91;21015;-53
2022/09/08 08:38:00;;;;;;;7.62;3.40;;;;;;;26.21;55.24;101883.29;1578257;91;21098;-54
2022/09/08 08:40:40;;;;;;;7.05;3.30;;;;;;;26.21;55.24;101883.29;1580209;90;21075;-53
2022/09/08 08:43:32;;;;;;;10.13;3.45;;;;;;;26.23;55.21;101882.23;1578849;91;21598;-55
2022/09/08 08:46:11;;;;;;;7.78;3.67;;;;;;;26.26;54.97;101870.47;1644052;85;21518;-55
2022/09/08 08:49:01;;;;;;;7.08;3.22;;;;;;;26.26;55.07;101874.47;1621754;88;21095;-58
2022/09/08 08:51:56;;;;;;;9.33;3.87;;;;;;;26.27;54.84;101874.38;1659520;85;21072;-56
2022/09/08 08:54:47;;;;;;;10.38;3.47;;;;;;;26.30;54.83;101873.29;1623726;87;21055;-54
2022/09/08 08:57:35;;;;;;;10.77;4.43;;;;;;;26.33;54.88;101873.09;1661373;86;21053;-54
2022/09/08 09:00:19;;;;;;;9.70;3.70;;;;;;;26.34;54.71;101868.11;1698399;84;21518;-55
2022/09/08 09:03:06;;;;;;;11.60;3.90;;;;;;;26.35;54.63;101871.17;1636833;86;21131;-55
2022/09/08 09:05:39;;;;;;;7.55;3.05;;;;;;;26.38;54.61;101870.94;1597687;88;21062;-54
2022/09/08 09:08:57;;;;;;;10.70;3.90;;;;;;;26.40;54.65;101875.69;1605383;88;21079;-58
2022/09/08 09:11:47;;;;;;;11.10;4.12;;;;;;;26.39;54.62;101869.52;1621262;88;21072;-53
2022/09/08 09:14:52;;;;;;;11.35;2.60;;;;;;;26.41;54.45;101870.27;1589290;89;21139;-55
2022/09/08 09:17:39;;;;;;;8.55;3.25;;;;;;;26.42;54.47;101873.29;1548264;91;21079;-57
2022/09/08 09:20:35;;;;;;;12.45;3.98;;;;;;;26.42;54.57;101865.79;1589066;89;21129;-56
2022/09/08 09:23:15;;;;;;;8.05;3.25;;;;;;;26.43;54.46;101858.14;1585850;89;21050;-60
2022/09/08 09:25:53;;;;;;;8.78;3.45;;;;;;;26.45;54.71;101866.89;1593531;89;21042;-56
2022/09/08 09:28:28;;;;;;;10.03;4.03;;;;;;;26.46;54.71;101860.10;1588650;89;21626;-54
2022/09/08 09:31:39;;;;;;;11.93;3.65;;;;;;;26.47;54.59;101861.83;1591221;89;21624;-56
2022/09/08 09:34:17;;;;;;;7.15;3.25;;;;;;;26.50;54.27;101856.76;1590584;89;21086;-55
2022/09/08 09:37:04;;;;;;;8.83;3.92;;;;;;;26.51;54.00;101857.98;1586680;88;21066;-54
2022/09/08 09:40:01;;;;;;;8.78;3.40;;;;;;;26.53;54.08;101859.19;1597065;89;21553;-58
2022/09/08 09:43:06;;;;;;;8.78;3.77;;;;;;;26.42;54.38;101857.78;1588311;89;21085;-57
2022/09/08 09:45:47;;;;;;;9.30;3.47;;;;;;;26.28;54.67;101860.54;1588975;89;21082;-54
2022/09/08 09:48:44;;;;;;;6.95;4.15;;;;;;;26.29;54.59;101858.26;1582138;89;21097;-55
2022/09/08 09:51:51;;;;;;;7.10;3.77;;;;;;;26.34;54.55;101856.11;1580663;89;21109;-56
2022/09/08 09:54:47;;;;;;;7.33;3.42;;;;;;;26.38;54.29;101865.60;1573821;90;21516;-58
2022/09/08 09:57:55;;;;;;;7.55;3.20;;;;;;;26.43;53.98;101862.14;1535511;92;21075;-54
2022/09/08 10:03:02;;;;;;;8.38;3.15;;;;;;;26.48;53.59;101846.17;1540150;92;21059;-54
2022/09/08 10:06:16;;;;;;;8.65;3.52;;;;;;;26.51;53.34;101842.44;1560424;91;21106;-53
2022/09/08 10:09:18;;;;;;;8.40;3.72;;;;;;;26.53;53.40;101849.38;1577286;91;21058;-56
2022/09/08 10:12:15;;;;;;;7.33;3.87;;;;;;;26.58;53.57;101849.06;1534251;93;21106;-56
2022/09/08 10:14:59;;;;;;;10.93;3.65;;;;;;;26.60;53.45;101841.79;1533909;92;21058;-55
2022/09/08 10:17:56;;;;;;;7.67;3.22;;;;;;;26.59;53.40;101848.08;1539985;91;21070;-54
2022/09/08 10:20:38;;;;;;;11.38;4.05;;;;;;;26.85;52.95;101844.44;1548109;91;21173;-56
2022/09/08 10:23:15;;;;;;;9.33;3.50;;;;;;;26.91;52.79;101839.98;1558349;91;21083;-53
2022/09/08 10:26:21;;;;;;;6.45;3.35;;;;;;;26.93;52.55;101851.41;1550192;91;21055;-56
2022/09/08 10:29:23;;;;;;;7.00;3.00;;;;;;;26.95;52.50;101844.14;1553152;91;21115;-58
2022/09/08 10:32:31;;;;;;;15.32;3.55;;;;;;;26.95;52.48;101852.16;1553129;91;21071;-53
2022/09/08 10:35:31;;;;;;;10.38;3.50;;;;;;;26.97;52.33;101844.02;1535345;91;21127;-55
2022/09/08 10:38:33;;;;;;;8.67;3.10;;;;;;;27.00;52.18;101841.97;1553132;91;21592;-57
2022/09/08 10:41:19;;;;;;;11.75;3.80;;;;;;;27.03;52.08;101844.91;1556778;91;21575;-54
2022/09/08 10:44:15;;;;;;;8.50;4.03;;;;;;;27.03;52.07;101845.77;1525863;93;21143;-55
2022/09/08 10:47:02;;;;;;;7.53;3.47;;;;;;;27.04;52.28;101842.59;1459590;97;21037;-57
2022/09/08 10:49:47;;;;;;;9.85;4.12;;;;;;;27.04;52.66;101838.11;1412273;100;21210;-57
2022/09/08 10:52:32;;;;;;;9.03;4.00;;;;;;;27.03;52.43;101831.08;1381924;102;21683;-55
2022/09/08 10:55:27;;;;;;;12.25;4.55;;;;;;;27.04;52.55;101830.09;1383630;102;21241;-60
2022/09/08 10:58:14;;;;;;;8.60;3.55;;;;;;;27.05;52.79;101822.46;1387366;102;21168;-54
2022/09/08 11:01:03;;;;;;;8.98;3.75;;;;;;;27.09;52.72;101833.29;1385416;102;21626;-55
2022/09/08 11:03:53;;;;;;;9.78;4.00;;;;;;;27.12;53.01;101829.04;1395793;102;21140;-61
2022/09/08 11:06:51;;;;;;;12.35;4.12;;;;;;;27.17;52.79;101823.36;1409221;99;21167;-60
2022/09/08 11:09:51;;;;;;;8.50;3.92;;;;;;;27.19;52.56;101816.94;1408291;101;21161;-56
2022/09/08 11:12:38;;;;;;;6.37;3.77;;;;;;;27.23;52.34;101818.42;1433920;99;21176;-57
2022/09/08 11:15:58;;;;;;;9.93;3.37;;;;;;;27.26;51.85;101827.56;1432007;99;21643;-55
2022/09/08 11:18:52;;;;;;;6.70;3.35;;;;;;;27.28;51.58;101821.61;1417605;100;21636;-55
2022/09/08 11:21:25;;;;;;;7.20;3.30;;;;;;;27.28;51.32;101816.27;1420641;99;21727;-55
2022/09/08 11:24:35;;;;;;;10.80;4.30;;;;;;;27.26;51.23;101810.19;1414963;100;21177;-57
2022/09/08 11:27:28;;;;;;;5.40;3.12;;;;;;;26.99;52.48;101806.89;1477804;94;21664;-58
2022/09/08 11:30:18;;;;;;;8.78;3.70;;;;;;;27.24;51.68;101808.08;1550632;91;21030;-52
2022/09/08 11:33:24;;;;;;;6.15;3.40;;;;;;;27.30;51.29;101799.64;1499475;94;21100;-54
2022/09/08 11:36:02;;;;;;;10.65;4.08;;;;;;;27.30;51.53;101788.95;1533602;93;21165;-57
2022/09/08 11:38:58;;;;;;;9.38;3.40;;;;;;;27.29;51.86;101797.05;1538424;92;21581;-57
2022/09/08 11:41:49;;;;;;;8.33;3.30;;;;;;;27.29;51.72;101788.56;1536868;92;21076;-54
2022/09/08 11:44:41;;;;;;;;;;;;;;;27.31;51.56;101783.95;1534163;92;21116;-55
2022/09/08 11:47:48;;;;;;;6.70;3.20;;;;;;;27.33;51.33;101787.36;1529756;92;20601;-58
2022/09/08 11:50:33;;;;;;;7.15;2.85;;;;;;;27.33;50.94;101783.35;1574593;89;21049;-60
2022/09/08 11:53:12;;;;;;;8.65;3.83;;;;;;;27.33;50.86;101776.67;1626272;88;21080;-55
2022/09/08 11:55:44;;;;;;;8.50;3.20;;;;;;;27.30;51.20;101769.37;1625768;88;21110;-54
2022/09/08 11:58:45;;;;;;;11.28;4.10;;;;;;;27.32;51.28;101766.97;1595498;89;21065;-57
2022/09/08 12:01:54;;;;;;;12.82;4.55;;;;;;;27.33;50.88;101765.98;1590427;90;21614;-57
2022/09/08 12:04:49;;;;;;;10.45;4.42;;;;;;;27.35;50.95;101768.09;1584581;90;21053;-56
2022/09/08 12:07:31;;;;;;;8.50;3.72;;;;;;;27.32;51.34;101761.62;1589995;90;21082;-58
2022/09/08 12:10:32;;;;;;;13.78;4.78;;;;;;;27.33;51.22;101757.10;1588273;90;21641;-55
2022/09/08 12:13:48;;;;;;;11.53;4.75;;;;;;;27.33;51.16;101763.31;1590276;90;21544;-56
2022/09/08 12:16:57;;;;;;;8.40;3.80;;;;;;;27.34;51.29;101763.72;1627714;86;21140;-53
2022/09/08 12:19:56;;;;;;;7.47;3.83;;;;;;;27.36;50.86;101763.59;1626923;88;21645;-60
2022/09/08 12:22:35;;;;;;;8.08;4.05;;;;;;;27.35;51.00;101765.41;1596630;89;21127;-57
2022/09/08 12:25:15;;;;;;;9.20;3.80;;;;;;;27.37;50.87;101767.48;1581529;90;21123;-55